Airport View

Enter AWOS ICAO identifier for current METAR.

ex. KFNL

KPTN 120556Z AUTO 05008KT 10SM CLR 08/02 A3037 RMK AO2 SLP284 60002 T00780022 10117 20078 58013

12 Dec 2019 06:34

Frequency: 134.575

Phone: 985-395-6735

Other Area AWOS: K7R3 - KP92 - KARA - KREG

TAF KARA 120528Z 1206/1306 04008KT P6SM SKC FM121500 06008KT P6SM BKN120 FM121800 05007KT P6SM OVC040